sensor_id;sensor_type;location;lat;lon;timestamp;P1;durP1;ratioP1;P2;durP2;ratioP2
20084;SDS011;10202;48.474;9.138;2023-05-14T00:01:57;7.85;;;5.70;;
20084;SDS011;10202;48.474;9.138;2023-05-14T00:04:22;6.20;;;4.88;;
20084;SDS011;10202;48.474;9.138;2023-05-14T00:06:50;6.38;;;5.45;;
20084;SDS011;10202;48.474;9.138;2023-05-14T00:09:23;6.57;;;5.28;;
20084;SDS011;10202;48.474;9.138;2023-05-14T00:11:48;5.70;;;4.88;;
20084;SDS011;10202;48.474;9.138;2023-05-14T00:14:16;8.20;;;5.60;;
20084;SDS011;10202;48.474;9.138;2023-05-14T00:16:44;7.63;;;5.35;;
20084;SDS011;10202;48.474;9.138;2023-05-14T00:19:09;6.85;;;5.53;;
20084;SDS011;10202;48.474;9.138;2023-05-14T00:21:35;9.45;;;6.45;;
20084;SDS011;10202;48.474;9.138;2023-05-14T00:24:03;10.75;;;8.23;;
20084;SDS011;10202;48.474;9.138;2023-05-14T00:26:31;18.20;;;7.72;;
20084;SDS011;10202;48.474;9.138;2023-05-14T00:28:57;6.75;;;5.88;;
20084;SDS011;10202;48.474;9.138;2023-05-14T00:31:23;10.57;;;6.43;;
20084;SDS011;10202;48.474;9.138;2023-05-14T00:33:48;10.13;;;6.18;;
20084;SDS011;10202;48.474;9.138;2023-05-14T00:36:14;8.20;;;6.20;;
20084;SDS011;10202;48.474;9.138;2023-05-14T00:38:40;6.97;;;6.10;;
20084;SDS011;10202;48.474;9.138;2023-05-14T00:41:08;8.13;;;5.70;;
20084;SDS011;10202;48.474;9.138;2023-05-14T00:43:34;9.10;;;5.88;;
20084;SDS011;10202;48.474;9.138;2023-05-14T00:45:59;7.47;;;5.82;;
20084;SDS011;10202;48.474;9.138;2023-05-14T00:48:25;8.63;;;6.22;;
20084;SDS011;10202;48.474;9.138;2023-05-14T00:50:53;8.32;;;6.88;;
20084;SDS011;10202;48.474;9.138;2023-05-14T00:53:21;8.02;;;6.30;;
20084;SDS011;10202;48.474;9.138;2023-05-14T00:55:49;9.43;;;6.72;;
20084;SDS011;10202;48.474;9.138;2023-05-14T00:58:15;8.25;;;6.80;;
20084;SDS011;10202;48.474;9.138;2023-05-14T01:00:44;10.13;;;6.60;;
20084;SDS011;10202;48.474;9.138;2023-05-14T01:03:10;10.35;;;7.10;;
20084;SDS011;10202;48.474;9.138;2023-05-14T01:11:54;11.68;;;7.10;;
20084;SDS011;10202;48.474;9.138;2023-05-14T01:17:11;11.10;;;7.95;;
20084;SDS011;10202;48.474;9.138;2023-05-14T01:19:40;8.88;;;7.55;;
20084;SDS011;10202;48.474;9.138;2023-05-14T01:22:13;9.32;;;7.22;;
20084;SDS011;10202;48.474;9.138;2023-05-14T01:24:43;8.82;;;7.43;;
20084;SDS011;10202;48.474;9.138;2023-05-14T01:27:11;8.35;;;7.40;;
20084;SDS011;10202;48.474;9.138;2023-05-14T01:32:53;12.48;;;7.38;;
20084;SDS011;10202;48.474;9.138;2023-05-14T01:35:23;10.45;;;7.80;;
20084;SDS011;10202;48.474;9.138;2023-05-14T01:37:57;9.07;;;6.90;;
20084;SDS011;10202;48.474;9.138;2023-05-14T01:40:25;10.93;;;7.70;;
20084;SDS011;10202;48.474;9.138;2023-05-14T01:42:59;7.80;;;6.60;;
20084;SDS011;10202;48.474;9.138;2023-05-14T01:45:25;8.43;;;7.20;;
20084;SDS011;10202;48.474;9.138;2023-05-14T01:47:52;8.88;;;6.32;;
20084;SDS011;10202;48.474;9.138;2023-05-14T01:50:19;10.32;;;6.95;;
20084;SDS011;10202;48.474;9.138;2023-05-14T01:52:44;9.90;;;6.40;;
20084;SDS011;10202;48.474;9.138;2023-05-14T01:55:12;9.63;;;6.50;;
20084;SDS011;10202;48.474;9.138;2023-05-14T01:57:42;10.73;;;6.90;;
20084;SDS011;10202;48.474;9.138;2023-05-14T02:00:10;7.85;;;6.63;;
20084;SDS011;10202;48.474;9.138;2023-05-14T02:02:41;8.13;;;6.70;;
20084;SDS011;10202;48.474;9.138;2023-05-14T02:05:12;9.98;;;7.15;;
20084;SDS011;10202;48.474;9.138;2023-05-14T02:07:40;9.60;;;7.45;;
20084;SDS011;10202;48.474;9.138;2023-05-14T02:10:08;8.90;;;7.18;;
20084;SDS011;10202;48.474;9.138;2023-05-14T02:12:36;9.98;;;7.68;;
20084;SDS011;10202;48.474;9.138;2023-05-14T02:15:04;10.98;;;7.20;;
20084;SDS011;10202;48.474;9.138;2023-05-14T02:17:35;8.68;;;6.68;;
20084;SDS011;10202;48.474;9.138;2023-05-14T02:20:03;10.32;;;7.70;;
20084;SDS011;10202;48.474;9.138;2023-05-14T02:22:29;11.05;;;7.10;;
20084;SDS011;10202;48.474;9.138;2023-05-14T02:24:57;10.00;;;7.30;;
20084;SDS011;10202;48.474;9.138;2023-05-14T02:27:25;8.20;;;6.85;;
20084;SDS011;10202;48.474;9.138;2023-05-14T02:29:54;8.68;;;6.50;;
20084;SDS011;10202;48.474;9.138;2023-05-14T02:32:20;7.57;;;6.68;;
20084;SDS011;10202;48.474;9.138;2023-05-14T02:34:50;8.20;;;6.60;;
20084;SDS011;10202;48.474;9.138;2023-05-14T02:37:18;8.27;;;6.50;;
20084;SDS011;10202;48.474;9.138;2023-05-14T02:39:46;9.65;;;7.05;;
20084;SDS011;10202;48.474;9.138;2023-05-14T02:42:14;11.93;;;7.82;;
20084;SDS011;10202;48.474;9.138;2023-05-14T02:44:42;10.13;;;8.02;;
20084;SDS011;10202;48.474;9.138;2023-05-14T02:47:10;9.15;;;7.63;;
20084;SDS011;10202;48.474;9.138;2023-05-14T02:49:38;11.00;;;7.55;;
20084;SDS011;10202;48.474;9.138;2023-05-14T02:52:08;10.20;;;6.80;;
20084;SDS011;10202;48.474;9.138;2023-05-14T02:54:39;8.40;;;6.18;;
20084;SDS011;10202;48.474;9.138;2023-05-14T02:57:07;8.52;;;6.72;;
20084;SDS011;10202;48.474;9.138;2023-05-14T02:59:35;9.20;;;7.38;;
20084;SDS011;10202;48.474;9.138;2023-05-14T03:02:03;8.23;;;6.95;;
20084;SDS011;10202;48.474;9.138;2023-05-14T03:04:31;10.52;;;7.55;;
20084;SDS011;10202;48.474;9.138;2023-05-14T03:06:59;8.15;;;6.90;;
20084;SDS011;10202;48.474;9.138;2023-05-14T03:09:27;9.10;;;7.35;;
20084;SDS011;10202;48.474;9.138;2023-05-14T03:11:53;9.55;;;6.75;;
20084;SDS011;10202;48.474;9.138;2023-05-14T03:14:26;12.68;;;7.18;;
20084;SDS011;10202;48.474;9.138;2023-05-14T03:16:53;9.25;;;6.80;;
20084;SDS011;10202;48.474;9.138;2023-05-14T03:19:20;14.00;;;7.05;;
20084;SDS011;10202;48.474;9.138;2023-05-14T03:21:50;11.13;;;7.10;;
20084;SDS011;10202;48.474;9.138;2023-05-14T03:24:22;8.35;;;7.13;;
20084;SDS011;10202;48.474;9.138;2023-05-14T03:26:50;8.90;;;7.47;;
20084;SDS011;10202;48.474;9.138;2023-05-14T03:29:18;12.30;;;7.50;;
20084;SDS011;10202;48.474;9.138;2023-05-14T03:31:47;11.30;;;7.30;;
20084;SDS011;10202;48.474;9.138;2023-05-14T03:34:14;9.88;;;7.80;;
20084;SDS011;10202;48.474;9.138;2023-05-14T03:36:41;10.20;;;7.95;;
20084;SDS011;10202;48.474;9.138;2023-05-14T03:39:07;10.15;;;8.38;;
20084;SDS011;10202;48.474;9.138;2023-05-14T03:41:36;11.18;;;7.95;;
20084;SDS011;10202;48.474;9.138;2023-05-14T03:44:03;9.70;;;8.05;;
20084;SDS011;10202;48.474;9.138;2023-05-14T03:46:31;9.05;;;8.07;;
20084;SDS011;10202;48.474;9.138;2023-05-14T03:48:58;10.50;;;8.18;;
20084;SDS011;10202;48.474;9.138;2023-05-14T03:51:26;9.57;;;7.40;;
20084;SDS011;10202;48.474;9.138;2023-05-14T03:53:51;13.05;;;8.00;;
20084;SDS011;10202;48.474;9.138;2023-05-14T03:56:17;9.27;;;7.18;;
20084;SDS011;10202;48.474;9.138;2023-05-14T03:58:48;10.25;;;7.35;;
20084;SDS011;10202;48.474;9.138;2023-05-14T04:01:19;10.65;;;7.68;;
20084;SDS011;10202;48.474;9.138;2023-05-14T04:03:45;9.65;;;7.63;;
20084;SDS011;10202;48.474;9.138;2023-05-14T04:06:13;10.48;;;8.40;;
20084;SDS011;10202;48.474;9.138;2023-05-14T04:08:39;10.88;;;8.68;;
20084;SDS011;10202;48.474;9.138;2023-05-14T04:11:04;9.13;;;7.50;;
20084;SDS011;10202;48.474;9.138;2023-05-14T04:13:35;10.73;;;7.70;;
20084;SDS011;10202;48.474;9.138;2023-05-14T04:16:07;9.05;;;7.38;;
20084;SDS011;10202;48.474;9.138;2023-05-14T04:18:35;11.70;;;7.60;;
20084;SDS011;10202;48.474;9.138;2023-05-14T04:21:01;8.50;;;7.22;;
20084;SDS011;10202;48.474;9.138;2023-05-14T04:23:29;11.40;;;7.97;;
20084;SDS011;10202;48.474;9.138;2023-05-14T04:25:57;10.35;;;8.15;;
20084;SDS011;10202;48.474;9.138;2023-05-14T04:28:25;10.40;;;7.93;;
20084;SDS011;10202;48.474;9.138;2023-05-14T04:30:51;12.85;;;8.25;;
20084;SDS011;10202;48.474;9.138;2023-05-14T04:33:19;14.02;;;9.57;;
20084;SDS011;10202;48.474;9.138;2023-05-14T04:35:47;12.90;;;8.90;;
20084;SDS011;10202;48.474;9.138;2023-05-14T04:38:16;13.05;;;9.80;;
20084;SDS011;10202;48.474;9.138;2023-05-14T04:40:41;13.55;;;10.55;;
20084;SDS011;10202;48.474;9.138;2023-05-14T04:43:07;13.07;;;9.65;;
20084;SDS011;10202;48.474;9.138;2023-05-14T04:45:35;10.48;;;8.50;;
20084;SDS011;10202;48.474;9.138;2023-05-14T04:48:05;10.98;;;8.07;;
20084;SDS011;10202;48.474;9.138;2023-05-14T04:50:33;14.43;;;10.13;;
20084;SDS011;10202;48.474;9.138;2023-05-14T04:53:01;14.20;;;9.85;;
20084;SDS011;10202;48.474;9.138;2023-05-14T04:55:27;13.70;;;10.13;;
20084;SDS011;10202;48.474;9.138;2023-05-14T04:57:53;15.35;;;10.95;;
20084;SDS011;10202;48.474;9.138;2023-05-14T05:00:22;15.05;;;11.05;;
20084;SDS011;10202;48.474;9.138;2023-05-14T05:02:52;14.05;;;10.43;;
20084;SDS011;10202;48.474;9.138;2023-05-14T05:05:20;13.07;;;10.18;;
20084;SDS011;10202;48.474;9.138;2023-05-14T05:07:48;13.23;;;10.50;;
20084;SDS011;10202;48.474;9.138;2023-05-14T05:10:16;13.85;;;10.93;;
20084;SDS011;10202;48.474;9.138;2023-05-14T05:12:46;16.33;;;11.20;;
20084;SDS011;10202;48.474;9.138;2023-05-14T05:15:14;13.43;;;10.55;;
20084;SDS011;10202;48.474;9.138;2023-05-14T05:17:42;12.85;;;10.30;;
20084;SDS011;10202;48.474;9.138;2023-05-14T05:20:10;12.95;;;10.85;;
20084;SDS011;10202;48.474;9.138;2023-05-14T05:22:38;15.23;;;11.45;;
20084;SDS011;10202;48.474;9.138;2023-05-14T05:25:06;12.70;;;9.98;;
20084;SDS011;10202;48.474;9.138;2023-05-14T05:27:36;15.60;;;10.63;;
20084;SDS011;10202;48.474;9.138;2023-05-14T05:30:01;14.75;;;10.55;;
20084;SDS011;10202;48.474;9.138;2023-05-14T05:32:30;14.35;;;10.65;;
20084;SDS011;10202;48.474;9.138;2023-05-14T05:34:58;13.60;;;10.50;;
20084;SDS011;10202;48.474;9.138;2023-05-14T05:37:29;18.88;;;10.68;;
20084;SDS011;10202;48.474;9.138;2023-05-14T05:39:55;12.27;;;10.02;;
20084;SDS011;10202;48.474;9.138;2023-05-14T05:42:24;14.65;;;9.73;;
20084;SDS011;10202;48.474;9.138;2023-05-14T05:44:50;13.32;;;10.27;;
20084;SDS011;10202;48.474;9.138;2023-05-14T05:47:18;15.35;;;10.40;;
20084;SDS011;10202;48.474;9.138;2023-05-14T05:49:46;14.45;;;10.05;;
20084;SDS011;10202;48.474;9.138;2023-05-14T05:52:14;13.38;;;10.15;;
20084;SDS011;10202;48.474;9.138;2023-05-14T05:54:42;13.90;;;10.07;;
20084;SDS011;10202;48.474;9.138;2023-05-14T05:57:08;12.25;;;9.43;;
20084;SDS011;10202;48.474;9.138;2023-05-14T05:59:35;12.90;;;9.77;;
20084;SDS011;10202;48.474;9.138;2023-05-14T06:02:03;13.88;;;10.45;;
20084;SDS011;10202;48.474;9.138;2023-05-14T06:04:29;12.95;;;10.48;;
20084;SDS011;10202;48.474;9.138;2023-05-14T06:06:54;13.38;;;9.85;;
20084;SDS011;10202;48.474;9.138;2023-05-14T06:09:22;12.38;;;10.05;;
20084;SDS011;10202;48.474;9.138;2023-05-14T06:11:52;14.68;;;9.82;;
20084;SDS011;10202;48.474;9.138;2023-05-14T06:14:20;20.95;;;10.27;;
20084;SDS011;10202;48.474;9.138;2023-05-14T06:16:46;13.93;;;9.85;;
20084;SDS011;10202;48.474;9.138;2023-05-14T06:19:13;14.60;;;10.43;;
20084;SDS011;10202;48.474;9.138;2023-05-14T06:21:39;12.82;;;9.05;;
20084;SDS011;10202;48.474;9.138;2023-05-14T06:24:07;13.45;;;9.40;;
20084;SDS011;10202;48.474;9.138;2023-05-14T06:26:33;12.48;;;9.55;;
20084;SDS011;10202;48.474;9.138;2023-05-14T06:29:03;12.63;;;10.35;;
20084;SDS011;10202;48.474;9.138;2023-05-14T06:31:28;13.23;;;10.02;;
20084;SDS011;10202;48.474;9.138;2023-05-14T06:33:59;13.27;;;10.00;;
20084;SDS011;10202;48.474;9.138;2023-05-14T06:36:24;15.43;;;10.05;;
20084;SDS011;10202;48.474;9.138;2023-05-14T06:38:52;12.20;;;9.48;;
20084;SDS011;10202;48.474;9.138;2023-05-14T06:41:20;16.67;;;10.00;;
20084;SDS011;10202;48.474;9.138;2023-05-14T06:43:51;13.25;;;9.07;;
20084;SDS011;10202;48.474;9.138;2023-05-14T06:46:16;11.60;;;9.20;;
20084;SDS011;10202;48.474;9.138;2023-05-14T06:48:44;12.13;;;8.95;;
20084;SDS011;10202;48.474;9.138;2023-05-14T06:51:14;12.75;;;9.38;;
20084;SDS011;10202;48.474;9.138;2023-05-14T06:53:42;13.75;;;10.15;;
20084;SDS011;10202;48.474;9.138;2023-05-14T06:56:08;12.00;;;9.60;;
20084;SDS011;10202;48.474;9.138;2023-05-14T06:58:39;14.07;;;10.18;;
20084;SDS011;10202;48.474;9.138;2023-05-14T07:01:07;15.25;;;10.20;;
20084;SDS011;10202;48.474;9.138;2023-05-14T07:03:35;12.80;;;9.40;;
20084;SDS011;10202;48.474;9.138;2023-05-14T07:06:05;16.38;;;11.48;;
20084;SDS011;10202;48.474;9.138;2023-05-14T07:08:31;15.30;;;10.40;;
20084;SDS011;10202;48.474;9.138;2023-05-14T07:11:01;15.15;;;10.70;;
20084;SDS011;10202;48.474;9.138;2023-05-14T07:13:29;13.57;;;10.75;;
20084;SDS011;10202;48.474;9.138;2023-05-14T07:15:54;14.70;;;10.20;;
20084;SDS011;10202;48.474;9.138;2023-05-14T07:18:22;13.18;;;10.18;;
20084;SDS011;10202;48.474;9.138;2023-05-14T07:20:50;12.13;;;9.27;;
20084;SDS011;10202;48.474;9.138;2023-05-14T07:23:17;13.23;;;10.23;;
20084;SDS011;10202;48.474;9.138;2023-05-14T07:25:43;12.38;;;9.48;;
20084;SDS011;10202;48.474;9.138;2023-05-14T07:28:09;11.88;;;9.50;;
20084;SDS011;10202;48.474;9.138;2023-05-14T07:30:39;11.57;;;9.52;;
20084;SDS011;10202;48.474;9.138;2023-05-14T07:33:05;15.27;;;10.02;;
20084;SDS011;10202;48.474;9.138;2023-05-14T07:35:31;13.93;;;9.63;;
20084;SDS011;10202;48.474;9.138;2023-05-14T07:37:57;12.68;;;9.48;;
20084;SDS011;10202;48.474;9.138;2023-05-14T07:40:23;13.18;;;9.48;;
20084;SDS011;10202;48.474;9.138;2023-05-14T07:42:49;14.18;;;10.40;;
20084;SDS011;10202;48.474;9.138;2023-05-14T07:45:17;13.60;;;10.43;;
20084;SDS011;10202;48.474;9.138;2023-05-14T07:47:50;13.05;;;10.13;;
20084;SDS011;10202;48.474;9.138;2023-05-14T07:50:16;14.57;;;10.40;;
20084;SDS011;10202;48.474;9.138;2023-05-14T07:52:46;14.70;;;11.27;;
20084;SDS011;10202;48.474;9.138;2023-05-14T07:55:16;13.63;;;10.93;;
20084;SDS011;10202;48.474;9.138;2023-05-14T07:57:44;14.68;;;10.70;;
20084;SDS011;10202;48.474;9.138;2023-05-14T08:00:12;15.85;;;11.48;;
20084;SDS011;10202;48.474;9.138;2023-05-14T08:02:38;14.57;;;11.07;;
20084;SDS011;10202;48.474;9.138;2023-05-14T08:05:06;16.05;;;10.98;;
20084;SDS011;10202;48.474;9.138;2023-05-14T08:07:33;13.77;;;10.70;;
20084;SDS011;10202;48.474;9.138;2023-05-14T08:10:02;15.82;;;11.60;;
20084;SDS011;10202;48.474;9.138;2023-05-14T08:12:28;15.07;;;10.90;;
20084;SDS011;10202;48.474;9.138;2023-05-14T08:14:54;13.82;;;10.95;;
20084;SDS011;10202;48.474;9.138;2023-05-14T08:17:22;17.63;;;11.05;;
20084;SDS011;10202;48.474;9.138;2023-05-14T08:19:47;16.08;;;11.40;;
20084;SDS011;10202;48.474;9.138;2023-05-14T08:22:16;12.85;;;10.55;;
20084;SDS011;10202;48.474;9.138;2023-05-14T08:24:42;15.27;;;11.43;;
20084;SDS011;10202;48.474;9.138;2023-05-14T08:27:08;16.85;;;12.27;;
20084;SDS011;10202;48.474;9.138;2023-05-14T08:29:34;17.20;;;11.48;;
20084;SDS011;10202;48.474;9.138;2023-05-14T08:31:59;14.98;;;11.07;;
20084;SDS011;10202;48.474;9.138;2023-05-14T08:34:27;13.68;;;10.88;;
20084;SDS011;10202;48.474;9.138;2023-05-14T08:36:53;14.20;;;10.95;;
20084;SDS011;10202;48.474;9.138;2023-05-14T08:39:19;16.17;;;11.48;;
20084;SDS011;10202;48.474;9.138;2023-05-14T08:41:45;14.82;;;10.88;;
20084;SDS011;10202;48.474;9.138;2023-05-14T08:44:15;13.70;;;10.73;;
20084;SDS011;10202;48.474;9.138;2023-05-14T08:46:50;14.85;;;11.98;;
20084;SDS011;10202;48.474;9.138;2023-05-14T08:52:09;14.68;;;11.48;;
20084;SDS011;10202;48.474;9.138;2023-05-14T08:54:39;14.95;;;10.50;;
20084;SDS011;10202;48.474;9.138;2023-05-14T08:57:04;13.82;;;10.40;;
20084;SDS011;10202;48.474;9.138;2023-05-14T08:59:36;13.20;;;9.95;;
20084;SDS011;10202;48.474;9.138;2023-05-14T09:02:07;13.93;;;10.40;;
20084;SDS011;10202;48.474;9.138;2023-05-14T09:04:34;15.55;;;11.40;;
20084;SDS011;10202;48.474;9.138;2023-05-14T09:07:01;13.70;;;10.68;;
20084;SDS011;10202;48.474;9.138;2023-05-14T09:09:31;13.35;;;9.88;;
20084;SDS011;10202;48.474;9.138;2023-05-14T09:12:02;13.77;;;10.63;;
20084;SDS011;10202;48.474;9.138;2023-05-14T09:14:31;13.88;;;10.20;;
20084;SDS011;10202;48.474;9.138;2023-05-14T09:16:57;14.43;;;10.95;;
20084;SDS011;10202;48.474;9.138;2023-05-14T09:19:23;13.65;;;10.63;;
20084;SDS011;10202;48.474;9.138;2023-05-14T09:21:49;12.45;;;10.27;;
20084;SDS011;10202;48.474;9.138;2023-05-14T09:24:23;14.50;;;10.75;;
20084;SDS011;10202;48.474;9.138;2023-05-14T09:26:54;16.42;;;11.02;;
20084;SDS011;10202;48.474;9.138;2023-05-14T09:29:24;13.18;;;10.27;;
20084;SDS011;10202;48.474;9.138;2023-05-14T09:31:56;14.88;;;10.43;;
20084;SDS011;10202;48.474;9.138;2023-05-14T09:34:26;12.65;;;10.38;;
20084;SDS011;10202;48.474;9.138;2023-05-14T09:36:59;16.73;;;10.48;;
20084;SDS011;10202;48.474;9.138;2023-05-14T09:39:31;14.50;;;10.25;;
20084;SDS011;10202;48.474;9.138;2023-05-14T09:41:58;15.60;;;10.40;;
20084;SDS011;10202;48.474;9.138;2023-05-14T09:44:27;13.45;;;10.55;;
20084;SDS011;10202;48.474;9.138;2023-05-14T09:46:55;13.00;;;10.05;;
20084;SDS011;10202;48.474;9.138;2023-05-14T09:49:21;15.20;;;10.95;;
20084;SDS011;10202;48.474;9.138;2023-05-14T09:51:50;14.35;;;10.63;;
20084;SDS011;10202;48.474;9.138;2023-05-14T09:54:15;13.52;;;10.93;;
20084;SDS011;10202;48.474;9.138;2023-05-14T09:56:44;50.75;;;11.90;;
20084;SDS011;10202;48.474;9.138;2023-05-14T09:59:11;49.22;;;11.43;;
20084;SDS011;10202;48.474;9.138;2023-05-14T10:01:42;17.48;;;11.85;;
20084;SDS011;10202;48.474;9.138;2023-05-14T10:04:10;27.20;;;11.32;;
20084;SDS011;10202;48.474;9.138;2023-05-14T10:06:40;14.13;;;10.75;;
20084;SDS011;10202;48.474;9.138;2023-05-14T10:09:11;15.88;;;11.40;;
20084;SDS011;10202;48.474;9.138;2023-05-14T10:11:41;14.48;;;10.82;;
20084;SDS011;10202;48.474;9.138;2023-05-14T10:14:13;11.35;;;9.23;;
20084;SDS011;10202;48.474;9.138;2023-05-14T10:16:51;12.35;;;9.38;;
20084;SDS011;10202;48.474;9.138;2023-05-14T10:19:22;12.50;;;9.70;;
20084;SDS011;10202;48.474;9.138;2023-05-14T10:21:56;11.70;;;9.50;;
20084;SDS011;10202;48.474;9.138;2023-05-14T10:24:28;11.88;;;9.45;;
20084;SDS011;10202;48.474;9.138;2023-05-14T10:26:55;13.25;;;10.07;;
20084;SDS011;10202;48.474;9.138;2023-05-14T10:29:46;11.35;;;9.35;;
20084;SDS011;10202;48.474;9.138;2023-05-14T10:32:23;12.60;;;9.85;;
20084;SDS011;10202;48.474;9.138;2023-05-14T10:34:56;11.32;;;9.23;;
20084;SDS011;10202;48.474;9.138;2023-05-14T10:37:25;12.13;;;8.90;;
20084;SDS011;10202;48.474;9.138;2023-05-14T10:40:01;11.70;;;8.80;;
20084;SDS011;10202;48.474;9.138;2023-05-14T10:42:33;12.75;;;9.35;;
20084;SDS011;10202;48.474;9.138;2023-05-14T10:45:10;10.23;;;8.35;;
20084;SDS011;10202;48.474;9.138;2023-05-14T10:47:38;12.02;;;8.63;;
20084;SDS011;10202;48.474;9.138;2023-05-14T10:50:12;12.82;;;8.68;;
20084;SDS011;10202;48.474;9.138;2023-05-14T10:52:40;12.48;;;8.48;;
20084;SDS011;10202;48.474;9.138;2023-05-14T10:55:08;11.85;;;8.68;;
20084;SDS011;10202;48.474;9.138;2023-05-14T10:57:43;12.25;;;8.57;;
20084;SDS011;10202;48.474;9.138;2023-05-14T11:00:10;10.18;;;8.50;;
20084;SDS011;10202;48.474;9.138;2023-05-14T11:02:40;9.48;;;7.88;;
20084;SDS011;10202;48.474;9.138;2023-05-14T11:05:17;11.80;;;8.10;;
20084;SDS011;10202;48.474;9.138;2023-05-14T11:07:46;9.20;;;7.95;;
20084;SDS011;10202;48.474;9.138;2023-05-14T11:10:15;9.80;;;6.13;;
20084;SDS011;10202;48.474;9.138;2023-05-14T11:12:47;6.45;;;5.40;;
20084;SDS011;10202;48.474;9.138;2023-05-14T11:15:19;9.50;;;6.68;;
20084;SDS011;10202;48.474;9.138;2023-05-14T11:17:54;7.30;;;6.18;;
20084;SDS011;10202;48.474;9.138;2023-05-14T11:20:20;7.25;;;6.28;;
20084;SDS011;10202;48.474;9.138;2023-05-14T11:22:48;8.00;;;6.60;;
20084;SDS011;10202;48.474;9.138;2023-05-14T11:25:15;8.18;;;6.47;;
20084;SDS011;10202;48.474;9.138;2023-05-14T11:27:44;8.27;;;6.40;;
20084;SDS011;10202;48.474;9.138;2023-05-14T11:30:17;7.38;;;6.30;;
20084;SDS011;10202;48.474;9.138;2023-05-14T11:32:49;8.48;;;6.70;;
20084;SDS011;10202;48.474;9.138;2023-05-14T11:35:18;7.35;;;6.03;;
20084;SDS011;10202;48.474;9.138;2023-05-14T11:37:50;9.07;;;6.35;;
20084;SDS011;10202;48.474;9.138;2023-05-14T11:40:18;8.60;;;5.80;;
20084;SDS011;10202;48.474;9.138;2023-05-14T11:42:49;7.30;;;5.80;;
20084;SDS011;10202;48.474;9.138;2023-05-14T11:45:27;9.23;;;5.65;;
20084;SDS011;10202;48.474;9.138;2023-05-14T11:47:53;8.60;;;6.53;;
20084;SDS011;10202;48.474;9.138;2023-05-14T11:50:24;7.53;;;5.60;;
20084;SDS011;10202;48.474;9.138;2023-05-14T11:52:50;6.90;;;5.95;;
20084;SDS011;10202;48.474;9.138;2023-05-14T11:55:23;6.40;;;5.68;;
20084;SDS011;10202;48.474;9.138;2023-05-14T11:57:54;5.80;;;5.18;;
20084;SDS011;10202;48.474;9.138;2023-05-14T12:00:25;6.88;;;6.10;;
20084;SDS011;10202;48.474;9.138;2023-05-14T12:02:53;9.27;;;5.78;;
20084;SDS011;10202;48.474;9.138;2023-05-14T12:05:19;9.30;;;5.88;;
20084;SDS011;10202;48.474;9.138;2023-05-14T12:07:45;7.20;;;5.60;;
20084;SDS011;10202;48.474;9.138;2023-05-14T12:10:14;6.82;;;5.85;;
20084;SDS011;10202;48.474;9.138;2023-05-14T12:12:39;7.85;;;6.15;;
20084;SDS011;10202;48.474;9.138;2023-05-14T12:15:17;7.32;;;5.53;;
20084;SDS011;10202;48.474;9.138;2023-05-14T12:17:49;7.53;;;5.80;;
20084;SDS011;10202;48.474;9.138;2023-05-14T12:20:18;5.95;;;5.32;;
20084;SDS011;10202;48.474;9.138;2023-05-14T12:22:44;7.47;;;5.05;;
20084;SDS011;10202;48.474;9.138;2023-05-14T12:25:12;6.68;;;5.63;;
20084;SDS011;10202;48.474;9.138;2023-05-14T12:27:38;6.18;;;4.97;;
20084;SDS011;10202;48.474;9.138;2023-05-14T12:30:04;5.50;;;4.90;;
20084;SDS011;10202;48.474;9.138;2023-05-14T12:32:36;6.70;;;5.03;;
20084;SDS011;10202;48.474;9.138;2023-05-14T12:35:07;7.25;;;5.38;;
20084;SDS011;10202;48.474;9.138;2023-05-14T12:37:36;9.85;;;6.13;;
20084;SDS011;10202;48.474;9.138;2023-05-14T12:40:06;6.95;;;5.68;;
20084;SDS011;10202;48.474;9.138;2023-05-14T12:42:35;6.38;;;5.18;;
20084;SDS011;10202;48.474;9.138;2023-05-14T12:45:01;7.35;;;5.70;;
20084;SDS011;10202;48.474;9.138;2023-05-14T12:47:31;7.05;;;4.93;;
20084;SDS011;10202;48.474;9.138;2023-05-14T12:50:04;11.52;;;5.18;;
20084;SDS011;10202;48.474;9.138;2023-05-14T12:52:33;5.05;;;4.55;;
20084;SDS011;10202;48.474;9.138;2023-05-14T12:55:04;6.13;;;5.20;;
20084;SDS011;10202;48.474;9.138;2023-05-14T12:57:33;7.85;;;5.78;;
20084;SDS011;10202;48.474;9.138;2023-05-14T13:00:02;5.57;;;4.80;;
20084;SDS011;10202;48.474;9.138;2023-05-14T13:02:32;5.60;;;5.03;;
20084;SDS011;10202;48.474;9.138;2023-05-14T13:04:58;7.20;;;5.18;;
20084;SDS011;10202;48.474;9.138;2023-05-14T13:07:29;7.25;;;5.40;;
20084;SDS011;10202;48.474;9.138;2023-05-14T13:10:02;4.50;;;3.95;;
20084;SDS011;10202;48.474;9.138;2023-05-14T13:12:32;5.68;;;4.45;;
20084;SDS011;10202;48.474;9.138;2023-05-14T13:14:58;5.38;;;4.60;;
20084;SDS011;10202;48.474;9.138;2023-05-14T13:17:26;4.70;;;4.22;;
20084;SDS011;10202;48.474;9.138;2023-05-14T13:19:55;5.95;;;4.90;;
20084;SDS011;10202;48.474;9.138;2023-05-14T13:22:27;8.07;;;5.07;;
20084;SDS011;10202;48.474;9.138;2023-05-14T13:24:53;5.15;;;4.65;;
20084;SDS011;10202;48.474;9.138;2023-05-14T13:27:21;6.25;;;4.70;;
20084;SDS011;10202;48.474;9.138;2023-05-14T13:29:52;4.63;;;4.20;;
20084;SDS011;10202;48.474;9.138;2023-05-14T13:32:20;6.35;;;4.22;;
20084;SDS011;10202;48.474;9.138;2023-05-14T13:34:50;4.72;;;3.53;;
20084;SDS011;10202;48.474;9.138;2023-05-14T13:37:18;4.55;;;4.07;;
20084;SDS011;10202;48.474;9.138;2023-05-14T13:39:46;6.50;;;4.47;;
20084;SDS011;10202;48.474;9.138;2023-05-14T13:42:16;5.78;;;4.38;;
20084;SDS011;10202;48.474;9.138;2023-05-14T13:44:44;5.40;;;4.28;;
20084;SDS011;10202;48.474;9.138;2023-05-14T13:47:14;7.35;;;5.28;;
20084;SDS011;10202;48.474;9.138;2023-05-14T13:49:42;6.13;;;4.47;;
20084;SDS011;10202;48.474;9.138;2023-05-14T13:52:10;5.47;;;4.82;;
20084;SDS011;10202;48.474;9.138;2023-05-14T13:54:37;6.80;;;3.50;;
20084;SDS011;10202;48.474;9.138;2023-05-14T13:57:05;2.78;;;2.58;;
20084;SDS011;10202;48.474;9.138;2023-05-14T13:59:38;3.13;;;2.80;;
20084;SDS011;10202;48.474;9.138;2023-05-14T14:02:12;3.30;;;2.88;;
20084;SDS011;10202;48.474;9.138;2023-05-14T14:04:40;3.33;;;2.95;;
20084;SDS011;10202;48.474;9.138;2023-05-14T14:07:08;3.45;;;3.10;;
20084;SDS011;10202;48.474;9.138;2023-05-14T14:09:33;3.55;;;3.22;;
20084;SDS011;10202;48.474;9.138;2023-05-14T14:12:02;3.25;;;2.95;;
20084;SDS011;10202;48.474;9.138;2023-05-14T14:14:28;3.63;;;2.90;;
20084;SDS011;10202;48.474;9.138;2023-05-14T14:16:59;6.38;;;3.40;;
20084;SDS011;10202;48.474;9.138;2023-05-14T14:19:24;4.78;;;3.70;;
20084;SDS011;10202;48.474;9.138;2023-05-14T14:21:57;4.47;;;3.70;;
20084;SDS011;10202;48.474;9.138;2023-05-14T14:24:28;5.93;;;3.53;;
20084;SDS011;10202;48.474;9.138;2023-05-14T14:26:55;5.90;;;3.58;;
20084;SDS011;10202;48.474;9.138;2023-05-14T14:29:21;4.18;;;3.78;;
20084;SDS011;10202;48.474;9.138;2023-05-14T14:31:49;4.40;;;3.28;;
20084;SDS011;10202;48.474;9.138;2023-05-14T14:34:14;4.10;;;3.70;;
20084;SDS011;10202;48.474;9.138;2023-05-14T14:36:40;7.82;;;3.95;;
20084;SDS011;10202;48.474;9.138;2023-05-14T14:39:05;4.03;;;3.63;;
20084;SDS011;10202;48.474;9.138;2023-05-14T14:41:31;5.78;;;3.83;;
20084;SDS011;10202;48.474;9.138;2023-05-14T14:43:59;4.30;;;3.65;;
20084;SDS011;10202;48.474;9.138;2023-05-14T14:46:29;3.97;;;3.58;;
20084;SDS011;10202;48.474;9.138;2023-05-14T14:48:59;3.28;;;2.97;;
20084;SDS011;10202;48.474;9.138;2023-05-14T14:51:25;3.40;;;3.00;;
20084;SDS011;10202;48.474;9.138;2023-05-14T14:53:54;3.63;;;3.10;;
20084;SDS011;10202;48.474;9.138;2023-05-14T14:56:19;7.70;;;3.90;;
20084;SDS011;10202;48.474;9.138;2023-05-14T14:58:46;4.88;;;3.92;;